KDAB/DAB METAR and TAF weather

Enter ICAO airport designator
Station Type Date Time Source
KDAB METAR 2019/09/21 20:53 UTC NOAA

KDAB 212053Z 07013G21KT 10SM SCT040 BKN060 27/18 A3015 RMK AO2 SLP207 60000 T02720183 56012


Station Type Date Time Source
KDAB Decoded METAR 2019/09/21 20:53 UTC NOAA

DAYTONA BEACH INTERNATIONAL, FL, United States (KDAB) 29-10N 81-04W 9M
Sep 21, 2019 - 04:53 PM EDT / 2019.09.21 2053 UTC
Wind: from the ENE (070 degrees) at 15 MPH (13 KT) gusting to 24 MPH (21 KT):0
Visibility: 10 mile(s):0
Sky conditions: mostly cloudy
Temperature: 81.0 F (27.2 C)
Dew Point: 64.9 F (18.3 C)
Relative Humidity: 58%
Pressure (altimeter): 30.15 in. Hg (1020 hPa)
Pressure tendency: 0.04 inches (1.2 hPa) lower than three hours ago
ob: KDAB 212053Z 07013G21KT 10SM SCT040 BKN060 27/18 A3015 RMK AO2 SLP207 60000 T02720183 56012
cycle: 21

Station Type Date Time Source
KDAB TAF 2019/09/21 18:27 UTC NOAA

TAF KDAB 211722Z 2118/2218 07015G22KT P6SM FEW030 SCT045
FM220000 06009KT P6SM FEW025 SCT035
FM221400 06012G18KT P6SM SCT030

Example: see airport list